MAPA DE AEROPUERTO

INFORMACIÓN METAR y TAF

METAR FOR GCFV
ADDS - METARS form results

(1151 UTC 05 August 2021)
Data provider http://aviationweather.gov/metar/data/
 
METAR text: GCFV 051130Z 05015KT 9999 FEW020 26/20 Q1019
Conditions at: GCFV (FUERTEVENTURA AR, ES) observed 1130 UTC 05 August 2021
Temperature: 26.0°C (79°F)
Dewpoint: 20.0°C (68°F) [RH = 70%]
Pressure (altimeter): 30.09 inches Hg (1019.0 mb)
Winds: from the NE (50 degrees) at 17 MPH (15 knots; 7.7 m/s)
Visibility: 6 or more miles (10+ km)
Ceiling: at least 12,000 feet AGL
Clouds: few clouds at 2000 feet AGL
Weather: no significant weather observed at this time

METAR text: GCFV 051100Z 05013KT 9999 FEW020 25/19 Q1019
Conditions at: GCFV (FUERTEVENTURA AR, ES) observed 1100 UTC 05 August 2021
Temperature: 25.0°C (77°F)
Dewpoint: 19.0°C (66°F) [RH = 69%]
Pressure (altimeter): 30.09 inches Hg (1019.0 mb)
Winds: from the NE (50 degrees) at 15 MPH (13 knots; 6.7 m/s)
Visibility: 6 or more miles (10+ km)
Ceiling: at least 12,000 feet AGL
Clouds: few clouds at 2000 feet AGL
Weather: no significant weather observed at this time

Forecast for: GCFV (FUERTEVENTURA AR, ES)
Text: TAF GCFV 050800Z 0509/0609 04018KT 9999 FEW020 TX27/0514Z TN21/0606Z
Forecast period: 0900 UTC 05 August 2021 to 0900 UTC 06 August 2021
Forecast type: FROM: standard forecast or significant change
Winds: from the NE (40 degrees) at 21 MPH (18 knots; 9.3 m/s)
Visibility: 6 or more miles (10+ km)
Ceiling: at least 12,000 feet AGL
Clouds: few clouds at 2000 feet AGL
Weather: no significant weather forecast for this period